createdAt,value
2022-09-23T00:01:09.995Z,100215.47
2022-09-23T00:03:39.074Z,100214.97
2022-09-23T00:06:10.910Z,100210.81
2022-09-23T00:08:38.777Z,100208.75
2022-09-23T00:11:10.668Z,100215.62
2022-09-23T00:13:38.569Z,100211.03
2022-09-23T00:16:08.057Z,100204.41
2022-09-23T00:18:35.466Z,100208.25
2022-09-23T00:21:06.640Z,100205.47
2022-09-23T00:23:34.355Z,100200.16
2022-09-23T00:26:02.679Z,100195.97
2022-09-23T00:28:30.615Z,100187.84
2022-09-23T00:31:03.070Z,100195.84
2022-09-23T00:33:30.462Z,100186.66
2022-09-23T00:36:05.462Z,100189.00
2022-09-23T00:38:34.012Z,100189.34
2022-09-23T00:41:17.007Z,100187.47
2022-09-23T00:43:52.867Z,100181.81
2022-09-23T00:46:37.177Z,100177.38
2022-09-23T00:49:14.083Z,100176.97
2022-09-23T00:51:44.646Z,100176.66
2022-09-23T00:54:11.990Z,100175.53
2022-09-23T00:56:39.353Z,100177.69
2022-09-23T00:59:07.606Z,100177.19
2022-09-23T01:01:35.500Z,100175.06
2022-09-23T01:04:02.935Z,100172.59
2022-09-23T01:06:30.908Z,100182.28
2022-09-23T01:08:58.277Z,100178.78
2022-09-23T01:11:50.148Z,100183.50
2022-09-23T01:14:38.994Z,100177.97
2022-09-23T01:17:08.959Z,100174.19
2022-09-23T01:19:36.396Z,100182.34
2022-09-23T01:22:19.514Z,100176.31
2022-09-23T01:25:09.101Z,100177.97
2022-09-23T01:27:43.261Z,100183.69
2022-09-23T01:30:11.107Z,100178.31
2022-09-23T01:32:54.828Z,100179.84
2022-09-23T01:35:34.293Z,100180.97
2022-09-23T01:38:16.241Z,100178.78
2022-09-23T01:41:05.019Z,100177.69
2022-09-23T01:43:53.690Z,100185.34
2022-09-23T01:46:25.490Z,100171.47
2022-09-23T01:49:12.897Z,100179.19
2022-09-23T01:51:46.778Z,100179.56
2022-09-23T01:54:17.718Z,100179.16
2022-09-23T01:56:53.800Z,100178.28
2022-09-23T01:59:40.234Z,100177.31
2022-09-23T02:02:16.621Z,100171.34
2022-09-23T02:04:45.586Z,100175.47
2022-09-23T02:07:32.216Z,100168.75
2022-09-23T02:10:14.126Z,100178.66
2022-09-23T02:12:42.168Z,100179.69
2022-09-23T02:15:11.850Z,100176.19
2022-09-23T02:17:42.562Z,100167.75
2022-09-23T02:20:10.537Z,100169.81
2022-09-23T02:22:44.426Z,100178.91
2022-09-23T02:25:12.586Z,100167.94
2022-09-23T02:27:44.734Z,100175.19
2022-09-23T02:30:17.770Z,100168.47
2022-09-23T02:32:58.385Z,100166.56
2022-09-23T02:35:37.127Z,100173.25
2022-09-23T02:38:12.618Z,100171.88
2022-09-23T02:40:54.780Z,100177.25
2022-09-23T02:43:36.126Z,100178.34
2022-09-23T02:46:04.069Z,100175.50
2022-09-23T02:48:53.315Z,100173.28
2022-09-23T02:51:21.002Z,100179.69
2022-09-23T02:53:48.339Z,100183.31
2022-09-23T02:56:20.978Z,100170.69
2022-09-23T02:58:49.289Z,100174.84
2022-09-23T03:01:41.259Z,100181.84
2022-09-23T03:04:27.065Z,100169.53
2022-09-23T03:07:22.055Z,100173.06
2022-09-23T03:10:04.748Z,100168.03
2022-09-23T03:12:52.879Z,100174.41
2022-09-23T03:15:36.546Z,100174.53
2022-09-23T03:18:15.878Z,100168.19
2022-09-23T03:20:50.157Z,100179.87
2022-09-23T03:23:23.566Z,100178.97
2022-09-23T03:25:54.046Z,100179.84
2022-09-23T03:28:22.147Z,100182.56
2022-09-23T03:30:51.027Z,100170.75
2022-09-23T03:33:19.509Z,100176.41
2022-09-23T03:36:13.173Z,100169.66
2022-09-23T03:38:43.154Z,100169.78
2022-09-23T03:41:12.038Z,100178.19
2022-09-23T03:43:39.430Z,100171.00
2022-09-23T03:46:08.212Z,100176.16
2022-09-23T03:48:35.585Z,100180.13
2022-09-23T03:51:18.108Z,100179.84
2022-09-23T03:53:45.743Z,100182.66
2022-09-23T03:56:13.102Z,100191.03
2022-09-23T03:58:40.502Z,100184.28
2022-09-23T04:01:08.172Z,100192.72
2022-09-23T04:03:35.802Z,100188.31
2022-09-23T04:06:03.130Z,100186.19
2022-09-23T04:08:30.531Z,100181.03
2022-09-23T04:11:01.720Z,100187.34
2022-09-23T04:13:29.445Z,100183.59
2022-09-23T04:15:56.809Z,100188.78
2022-09-23T04:18:24.523Z,100181.78
2022-09-23T04:20:51.871Z,100184.44
2022-09-23T04:23:19.219Z,100190.34
2022-09-23T04:25:49.643Z,100185.78
2022-09-23T04:28:16.980Z,100179.13
2022-09-23T04:30:46.040Z,100183.81
2022-09-23T04:33:13.728Z,100184.94
2022-09-23T04:35:43.042Z,100186.91
2022-09-23T04:38:13.431Z,100180.78
2022-09-23T04:40:41.119Z,100190.16
2022-09-23T04:43:13.363Z,100192.41
2022-09-23T04:45:41.489Z,100192.34
2022-09-23T04:48:10.270Z,100188.50
2022-09-23T04:50:37.814Z,100193.94
2022-09-23T04:53:05.537Z,100198.94
2022-09-23T04:55:32.902Z,100193.59
2022-09-23T04:58:00.386Z,100185.69
2022-09-23T05:00:28.666Z,100187.44
2022-09-23T05:02:56.136Z,100192.31
2022-09-23T05:05:24.230Z,100198.00
2022-09-23T05:07:51.852Z,100199.63
2022-09-23T05:10:19.191Z,100207.16
2022-09-23T05:12:46.545Z,100202.50
2022-09-23T05:15:15.136Z,100211.59
2022-09-23T05:17:43.100Z,100212.94
2022-09-23T05:20:11.350Z,100202.00
2022-09-23T05:22:38.973Z,100204.66
2022-09-23T05:25:06.518Z,100208.03
2022-09-23T05:27:33.864Z,100207.22
2022-09-23T05:30:01.494Z,100213.94
2022-09-23T05:32:28.826Z,100214.44
2022-09-23T05:34:56.218Z,100212.25
2022-09-23T05:37:25.327Z,100213.00
2022-09-23T05:39:52.690Z,100215.75
2022-09-23T05:42:20.975Z,100218.72
2022-09-23T05:44:48.900Z,100219.56
2022-09-23T05:47:16.306Z,100219.28
2022-09-23T05:49:59.103Z,100209.94
2022-09-23T05:52:27.982Z,100211.53
2022-09-23T05:54:55.372Z,100207.47
2022-09-23T05:57:22.748Z,100212.31
2022-09-23T05:59:50.402Z,100209.13
2022-09-23T06:02:17.836Z,100203.84
2022-09-23T06:04:45.498Z,100210.97
2022-09-23T06:07:12.879Z,100211.50
2022-09-23T06:09:42.356Z,100210.81
2022-09-23T06:12:09.995Z,100212.31
2022-09-23T06:14:37.372Z,100206.66
2022-09-23T06:17:05.586Z,100211.13
2022-09-23T06:19:33.200Z,100214.31
2022-09-23T06:22:00.580Z,100211.78
2022-09-23T06:24:31.320Z,100207.41
2022-09-23T06:26:59.059Z,100206.84
2022-09-23T06:29:26.505Z,100214.03
2022-09-23T06:31:53.901Z,100197.66
2022-09-23T06:34:21.758Z,100214.16
2022-09-23T06:36:49.338Z,100212.97
2022-09-23T06:39:16.734Z,100212.91
2022-09-23T06:41:45.114Z,100214.97
2022-09-23T06:44:13.837Z,100215.72
2022-09-23T06:46:41.360Z,100217.47
2022-09-23T06:49:09.132Z,100225.62
2022-09-23T06:51:36.709Z,100231.28
2022-09-23T06:54:04.476Z,100226.56
2022-09-23T06:56:36.304Z,100222.12
2022-09-23T06:59:05.558Z,100224.72
2022-09-23T07:01:34.470Z,100218.34
2022-09-23T07:04:02.066Z,100216.25
2022-09-23T07:06:29.403Z,100214.59
2022-09-23T07:08:57.040Z,100213.94
2022-09-23T07:11:24.391Z,100214.75
2022-09-23T07:13:51.783Z,100219.00
2022-09-23T07:16:19.717Z,100211.03
2022-09-23T07:18:47.346Z,100217.81
2022-09-23T07:21:18.457Z,100216.56
2022-09-23T07:23:47.551Z,100219.25
2022-09-23T07:26:15.193Z,100227.41
2022-09-23T07:28:42.606Z,100224.88
2022-09-23T07:31:12.785Z,100220.97
2022-09-23T07:33:41.454Z,100228.00
2022-09-23T07:36:13.505Z,100232.38
2022-09-23T07:38:45.177Z,100232.88
2022-09-23T07:41:17.759Z,100231.53
2022-09-23T07:43:46.108Z,100230.87
2022-09-23T07:46:16.408Z,100224.09
2022-09-23T07:48:44.703Z,100216.50
2022-09-23T07:51:36.328Z,100227.06
2022-09-23T07:54:10.276Z,100218.53
2022-09-23T07:56:38.323Z,100214.22
2022-09-23T07:59:08.568Z,100213.56
2022-09-23T08:01:41.281Z,100218.91
2022-09-23T08:04:12.052Z,100226.81
2022-09-23T08:06:43.876Z,100216.69
2022-09-23T08:09:11.713Z,100220.91
2022-09-23T08:11:42.483Z,100226.81
2022-09-23T08:14:10.994Z,100222.16
2022-09-23T08:16:39.826Z,100217.91
2022-09-23T08:19:07.537Z,100207.56
2022-09-23T08:21:34.953Z,100221.41
2022-09-23T08:24:02.781Z,100225.06
2022-09-23T08:26:30.932Z,100211.16
2022-09-23T08:28:58.535Z,100207.94
2022-09-23T08:31:27.562Z,100221.47
2022-09-23T08:33:56.261Z,100202.97
2022-09-23T08:36:24.171Z,100205.44
2022-09-23T08:38:51.983Z,100201.84
2022-09-23T08:41:37.947Z,100204.88
2022-09-23T08:44:16.967Z,100192.56
2022-09-23T08:46:48.028Z,100205.63
2022-09-23T08:49:21.725Z,100207.69
2022-09-23T08:51:49.309Z,100204.13
2022-09-23T08:54:17.070Z,100201.22
2022-09-23T08:56:45.309Z,100201.78
2022-09-23T08:59:15.037Z,100204.03
2022-09-23T09:02:45.837Z,100208.44
2022-09-23T09:06:27.865Z,100204.53
2022-09-23T09:09:27.189Z,100206.31
2022-09-23T09:12:16.801Z,100203.97
2022-09-23T09:14:57.010Z,100196.50
2022-09-23T09:18:03.731Z,100200.47
2022-09-23T09:20:41.500Z,100197.94
2022-09-23T09:23:23.453Z,100200.19
2022-09-23T09:26:01.598Z,100196.75
2022-09-23T09:28:43.533Z,100193.16
2022-09-23T09:31:42.594Z,100188.56
2022-09-23T09:34:34.474Z,100191.12
2022-09-23T09:37:18.237Z,100187.22
2022-09-23T09:39:46.353Z,100181.03
2022-09-23T09:42:23.594Z,100181.66
2022-09-23T09:45:01.907Z,100178.44
2022-09-23T09:48:00.962Z,100181.50
2022-09-23T09:50:49.360Z,100169.44
2022-09-23T09:53:21.852Z,100171.63
2022-09-23T09:56:11.260Z,100173.47
2022-09-23T09:58:54.021Z,100175.78
2022-09-23T10:01:31.925Z,100170.81
2022-09-23T10:04:18.640Z,100167.25
2022-09-23T10:07:03.022Z,100164.31
2022-09-23T10:09:33.808Z,100163.19
2022-09-23T10:12:21.310Z,100158.31
2022-09-23T10:14:51.420Z,100162.37
2022-09-23T10:17:28.399Z,100156.38
2022-09-23T10:20:01.005Z,100159.09
2022-09-23T10:22:47.106Z,100156.81
2022-09-23T10:25:20.290Z,100152.69
2022-09-23T10:27:47.622Z,100152.69
2022-09-23T10:30:15.044Z,100153.72
2022-09-23T10:32:45.368Z,100158.66
2022-09-23T10:35:23.822Z,100154.09
2022-09-23T10:37:55.531Z,100153.09
2022-09-23T10:40:56.033Z,100150.16
2022-09-23T10:44:07.208Z,100138.87
2022-09-23T10:46:41.668Z,100146.91
2022-09-23T10:49:31.134Z,100139.63
2022-09-23T10:52:22.680Z,100128.22
2022-09-23T10:55:17.666Z,100138.59
2022-09-23T10:57:44.922Z,100148.75
2022-09-23T11:00:27.687Z,100132.53
2022-09-23T11:03:18.649Z,100129.19
2022-09-23T11:05:58.266Z,100135.72
2022-09-23T11:08:59.619Z,100133.94
2022-09-23T11:11:46.331Z,100137.25
2022-09-23T11:14:32.748Z,100127.00
2022-09-23T11:17:24.783Z,100123.44
2022-09-23T11:19:56.457Z,100119.91
2022-09-23T11:22:45.734Z,100116.50
2022-09-23T11:25:40.876Z,100117.69
2022-09-23T11:28:42.487Z,100107.53
2022-09-23T11:31:37.341Z,100101.56
2022-09-23T11:34:30.218Z,100115.69
2022-09-23T11:37:12.840Z,100105.19
2022-09-23T11:40:03.584Z,100099.97
2022-09-23T11:42:33.903Z,100102.63
2022-09-23T11:45:13.061Z,100099.72
2022-09-23T11:47:46.652Z,100091.31
2022-09-23T11:50:47.036Z,100087.91
2022-09-23T11:53:45.152Z,100088.81
2022-09-23T11:56:33.319Z,100090.75
2022-09-23T11:59:19.986Z,100080.84
2022-09-23T12:01:55.308Z,100077.28
2022-09-23T12:04:52.650Z,100084.81
2022-09-23T12:07:25.672Z,100080.31
2022-09-23T12:10:03.534Z,100077.41
2022-09-23T12:12:52.147Z,100076.31
2022-09-23T12:15:27.017Z,100070.28
2022-09-23T12:18:04.695Z,100066.63
2022-09-23T12:21:08.763Z,100060.13
2022-09-23T12:23:53.996Z,100063.34
2022-09-23T12:26:23.250Z,100063.53
2022-09-23T12:28:52.010Z,100054.69
2022-09-23T12:31:21.894Z,100042.16
2022-09-23T12:33:53.655Z,100039.75
2022-09-23T12:36:34.720Z,100034.59
2022-09-23T12:39:06.331Z,100035.59
2022-09-23T12:41:38.723Z,100032.28
2022-09-23T12:44:15.403Z,100032.69
2022-09-23T12:46:45.467Z,100026.09
2022-09-23T12:49:28.276Z,100024.56
2022-09-23T12:52:10.754Z,100018.03
2022-09-23T12:54:39.343Z,100017.91
2022-09-23T12:57:32.198Z,100022.75
2022-09-23T13:00:13.125Z,100012.53
2022-09-23T13:02:46.966Z,100009.06
2022-09-23T13:05:40.483Z,100010.78
2022-09-23T13:08:18.604Z,99998.91
2022-09-23T13:10:54.690Z,100004.56
2022-09-23T13:13:29.663Z,99992.19
2022-09-23T13:16:12.608Z,100000.63
2022-09-23T13:19:04.800Z,99992.87
2022-09-23T13:21:44.871Z,99986.47
2022-09-23T13:24:28.923Z,99986.56
2022-09-23T13:27:00.331Z,99986.44
2022-09-23T13:29:38.110Z,99995.97
2022-09-23T13:32:06.363Z,99992.72
2022-09-23T13:34:34.545Z,99992.72
2022-09-23T13:37:22.176Z,100003.00
2022-09-23T13:39:50.997Z,100005.34
2022-09-23T13:42:38.172Z,99996.47
2022-09-23T13:45:06.658Z,99994.22
2022-09-23T13:47:34.008Z,99991.69
2022-09-23T13:50:02.131Z,99993.84
2022-09-23T13:52:31.327Z,99992.03
2022-09-23T13:54:58.720Z,99996.09
2022-09-23T13:57:27.975Z,99996.78
2022-09-23T14:00:21.152Z,99997.88
2022-09-23T14:02:48.920Z,100006.22
2022-09-23T14:05:27.192Z,99980.88
2022-09-23T14:07:55.302Z,99996.41
2022-09-23T14:10:28.732Z,99991.19
2022-09-23T14:13:00.925Z,99992.16
2022-09-23T14:15:32.717Z,99985.59
2022-09-23T14:18:06.592Z,99980.38
2022-09-23T14:20:50.440Z,99972.72
2022-09-23T14:23:20.752Z,99985.81
2022-09-23T14:25:49.251Z,99980.94
2022-09-23T14:28:19.183Z,99979.75
2022-09-23T14:30:51.357Z,99979.03
2022-09-23T14:33:27.407Z,99978.28
2022-09-23T14:36:07.245Z,99977.28
2022-09-23T14:38:51.819Z,99977.53
2022-09-23T14:41:23.751Z,99964.31
2022-09-23T14:43:54.612Z,99967.47
2022-09-23T14:46:23.076Z,99966.94
2022-09-23T14:49:11.642Z,99973.00
2022-09-23T14:51:49.357Z,99966.16
2022-09-23T14:54:44.008Z,99960.94
2022-09-23T14:57:38.558Z,99959.59
2022-09-23T15:00:18.142Z,99962.59
2022-09-23T15:02:57.774Z,99963.00
2022-09-23T15:05:45.292Z,99957.44
2022-09-23T15:08:15.786Z,99961.13
2022-09-23T15:10:43.099Z,99967.56
2022-09-23T15:13:22.247Z,99977.91
2022-09-23T15:15:53.403Z,99970.06
2022-09-23T15:18:25.604Z,99967.16
2022-09-23T15:20:54.690Z,99969.66
2022-09-23T15:23:50.666Z,99967.59
2022-09-23T15:26:39.191Z,99974.22
2022-09-23T15:29:09.773Z,99978.72
2022-09-23T15:31:37.708Z,99966.97
2022-09-23T15:34:10.140Z,99967.12
2022-09-23T15:36:38.569Z,99961.00
2022-09-23T15:39:07.067Z,99962.59
2022-09-23T15:41:34.692Z,99967.38
2022-09-23T15:44:11.463Z,99963.37
2022-09-23T15:46:39.990Z,99950.97
2022-09-23T15:49:15.213Z,99955.06
2022-09-23T15:51:43.063Z,99954.56
2022-09-23T15:54:13.822Z,99949.34
2022-09-23T15:56:41.167Z,99955.19
2022-09-23T15:59:08.573Z,99963.25
2022-09-23T16:01:36.444Z,99953.34
2022-09-23T16:04:04.527Z,99959.94
2022-09-23T16:06:32.098Z,99961.00
2022-09-23T16:08:59.430Z,99957.69
2022-09-23T16:11:33.437Z,99957.31
2022-09-23T16:14:00.831Z,99962.47
2022-09-23T16:16:28.715Z,99969.44
2022-09-23T16:18:56.216Z,99965.72
2022-09-23T16:21:24.741Z,99964.47
2022-09-23T16:23:53.418Z,99971.28
2022-09-23T16:26:22.894Z,99967.16
2022-09-23T16:28:51.169Z,99978.50
2022-09-23T16:31:19.304Z,99971.63
2022-09-23T16:33:47.177Z,99977.00
2022-09-23T16:36:28.888Z,99973.72
2022-09-23T16:38:56.721Z,99973.78
2022-09-23T16:41:24.767Z,99974.44
2022-09-23T16:43:52.918Z,99969.44
2022-09-23T16:46:20.793Z,99977.87
2022-09-23T16:48:52.357Z,99976.84
2022-09-23T16:51:21.228Z,99972.63
2022-09-23T16:53:49.344Z,99966.41
2022-09-23T16:56:17.535Z,99969.69
2022-09-23T16:58:44.862Z,99975.41
2022-09-23T17:01:39.362Z,99965.16
2022-09-23T17:04:07.447Z,99973.72
2022-09-23T17:06:35.509Z,99968.00
2022-09-23T17:09:03.023Z,99970.13
2022-09-23T17:11:33.964Z,99973.84
2022-09-23T17:14:01.879Z,99968.84
2022-09-23T17:16:30.823Z,99968.03
2022-09-23T17:18:58.229Z,99966.38
2022-09-23T17:21:26.870Z,99977.00
2022-09-23T17:23:55.099Z,99976.97
2022-09-23T17:26:23.889Z,99977.28
2022-09-23T17:28:51.954Z,99974.41
2022-09-23T17:31:19.512Z,99981.09
2022-09-23T17:33:46.918Z,99984.38
2022-09-23T17:36:14.730Z,99978.13
2022-09-23T17:38:45.986Z,99984.91
2022-09-23T17:41:13.728Z,99979.69
2022-09-23T17:43:41.491Z,99982.38
2022-09-23T17:46:18.187Z,99983.84
2022-09-23T17:48:45.925Z,99989.69
2022-09-23T17:51:15.050Z,99994.00
2022-09-23T17:53:45.012Z,99992.84
2022-09-23T17:56:20.133Z,99992.84
2022-09-23T17:58:48.410Z,100000.44
2022-09-23T18:01:18.378Z,99995.56
2022-09-23T18:03:46.386Z,99991.81
2022-09-23T18:06:13.626Z,99999.63
2022-09-23T18:08:41.868Z,100001.66
2022-09-23T18:11:22.754Z,100009.19
2022-09-23T18:13:51.032Z,99999.19
2022-09-23T18:16:19.087Z,100000.84
2022-09-23T18:18:53.461Z,100002.72
2022-09-23T18:21:21.860Z,100002.78
2022-09-23T18:23:49.308Z,100000.13
2022-09-23T18:26:17.891Z,100011.66
2022-09-23T18:28:45.862Z,100007.88
2022-09-23T18:31:18.022Z,100007.31
2022-09-23T18:33:52.181Z,100009.59
2022-09-23T18:36:23.873Z,100009.87
2022-09-23T18:38:52.189Z,100012.19
2022-09-23T18:41:19.718Z,100008.91
2022-09-23T18:43:48.693Z,100016.84
2022-09-23T18:46:18.423Z,100024.31
2022-09-23T18:49:04.660Z,100020.69
2022-09-23T18:51:32.556Z,100013.69
2022-09-23T18:54:00.753Z,100019.94
2022-09-23T18:56:39.610Z,100025.81
2022-09-23T18:59:14.471Z,100024.00
2022-09-23T19:01:42.085Z,100024.13
2022-09-23T19:04:09.959Z,100018.75
2022-09-23T19:06:37.437Z,100026.03
2022-09-23T19:09:05.826Z,100015.44
2022-09-23T19:11:36.186Z,100014.50
2022-09-23T19:14:08.162Z,100022.75
2022-09-23T19:16:37.523Z,100017.38
2022-09-23T19:19:05.257Z,100021.84
2022-09-23T19:21:33.445Z,100018.88
2022-09-23T19:24:03.650Z,100019.34
2022-09-23T19:26:38.243Z,100012.91
2022-09-23T19:29:08.404Z,100025.84
2022-09-23T19:31:39.139Z,100019.22
2022-09-23T19:34:11.474Z,100025.66
2022-09-23T19:36:39.921Z,100023.59
2022-09-23T19:39:21.107Z,100023.78
2022-09-23T19:41:49.053Z,100023.91
2022-09-23T19:44:17.891Z,100019.56
2022-09-23T19:46:46.232Z,100018.34
2022-09-23T19:49:13.876Z,100018.53
2022-09-23T19:51:41.520Z,100021.94
2022-09-23T19:54:09.962Z,100027.34
2022-09-23T19:56:38.582Z,100031.59
2022-09-23T19:59:09.177Z,100026.59
2022-09-23T20:01:36.650Z,100023.28
2022-09-23T20:04:04.402Z,100021.00
2022-09-23T20:06:33.933Z,100022.78
2022-09-23T20:09:01.540Z,100012.41
2022-09-23T20:11:29.379Z,100019.72
2022-09-23T20:14:02.179Z,100016.94
2022-09-23T20:16:32.268Z,100015.84
2022-09-23T20:19:00.305Z,100016.81
2022-09-23T20:21:28.405Z,100014.91
2022-09-23T20:23:56.429Z,100018.66
2022-09-23T20:26:42.627Z,100016.28
2022-09-23T20:29:11.025Z,100012.31
2022-09-23T20:31:40.422Z,100012.28
2022-09-23T20:34:08.205Z,100015.72
2022-09-23T20:36:36.247Z,100018.06
2022-09-23T20:39:05.749Z,100019.59
2022-09-23T20:41:36.817Z,100019.72
2022-09-23T20:44:06.359Z,100017.09
2022-09-23T20:46:34.331Z,100016.56
2022-09-23T20:49:02.214Z,100016.69
2022-09-23T20:51:32.971Z,100011.62
2022-09-23T20:54:00.546Z,100015.41
2022-09-23T20:56:28.544Z,100016.75
2022-09-23T20:59:00.174Z,100009.34
2022-09-23T21:01:27.742Z,100011.72
2022-09-23T21:03:55.993Z,100004.97
2022-09-23T21:06:25.139Z,100006.41
2022-09-23T21:08:53.394Z,100001.22
2022-09-23T21:11:20.872Z,100006.78
2022-09-23T21:13:49.723Z,100004.44
2022-09-23T21:16:18.341Z,100002.87
2022-09-23T21:18:45.941Z,100005.53
2022-09-23T21:21:14.380Z,100003.56
2022-09-23T21:23:41.964Z,100010.41
2022-09-23T21:26:13.742Z,100014.75
2022-09-23T21:28:48.481Z,100009.75
2022-09-23T21:31:23.083Z,100011.44
2022-09-23T21:34:02.133Z,100012.09
2022-09-23T21:36:39.416Z,100011.19
2022-09-23T21:39:07.842Z,100010.31
2022-09-23T21:41:35.242Z,100021.25
2022-09-23T21:44:04.642Z,100018.53
2022-09-23T21:46:35.595Z,100026.78
2022-09-23T21:49:03.987Z,100022.47
2022-09-23T21:51:38.768Z,100026.63
2022-09-23T21:54:16.040Z,100017.09
2022-09-23T21:56:43.891Z,100022.47
2022-09-23T21:59:11.315Z,100021.62
2022-09-23T22:01:40.960Z,100026.59
2022-09-23T22:04:16.923Z,100011.28
2022-09-23T22:06:44.577Z,100016.59
2022-09-23T22:09:14.131Z,100017.50
2022-09-23T22:12:00.340Z,100015.31
2022-09-23T22:14:28.101Z,100019.75
2022-09-23T22:16:57.329Z,100015.19
2022-09-23T22:19:35.318Z,100016.28
2022-09-23T22:22:08.257Z,100018.25
2022-09-23T22:24:35.601Z,100017.50
2022-09-23T22:27:03.232Z,100017.91
2022-09-23T22:29:49.150Z,100023.78
2022-09-23T22:32:35.543Z,100021.94
2022-09-23T22:35:03.182Z,100019.53
2022-09-23T22:37:35.036Z,100012.47
2022-09-23T22:40:06.434Z,100018.09
2022-09-23T22:42:34.638Z,100016.81
2022-09-23T22:45:05.150Z,100022.78
2022-09-23T22:47:37.639Z,100019.47
2022-09-23T22:50:06.529Z,100025.09
2022-09-23T22:52:34.211Z,100022.97
2022-09-23T22:55:01.607Z,100024.81
2022-09-23T22:57:29.225Z,100029.47
2022-09-23T22:59:56.555Z,100027.78
2022-09-23T23:02:24.015Z,100024.28
2022-09-23T23:04:51.636Z,100025.94
2022-09-23T23:07:22.925Z,100019.34
2022-09-23T23:09:50.495Z,100016.50
2022-09-23T23:12:20.157Z,100019.16
2022-09-23T23:14:48.278Z,100020.63
2022-09-23T23:17:15.746Z,100024.69
2022-09-23T23:19:43.429Z,100021.50
2022-09-23T23:22:10.731Z,100018.16
2022-09-23T23:24:38.085Z,100017.81
2022-09-23T23:27:05.667Z,100011.53
2022-09-23T23:29:33.138Z,100013.81
2022-09-23T23:32:00.626Z,100014.53
2022-09-23T23:34:28.249Z,100007.03
2022-09-23T23:36:55.828Z,100009.19
2022-09-23T23:39:23.838Z,100003.53
2022-09-23T23:41:53.284Z,100004.53
2022-09-23T23:44:20.677Z,100002.38
2022-09-23T23:46:49.107Z,100007.53
2022-09-23T23:49:16.859Z,99996.41
2022-09-23T23:51:44.481Z,99999.88
2022-09-23T23:54:12.292Z,100008.53
2022-09-23T23:56:39.879Z,100005.81
2022-09-23T23:59:07.180Z,100001.88
